Tuluksak, Alaska
Current Conditions -  °F | °C
As of 4:56 AM on Wednesday 22 Oct 2014 (Local Time) from PFKW Reporting Station
Clear Clear  
Wind Chill: 12°   Ceiling: Unl
Heat Index: 21°   Visibility: 10mi
Dew Point: 20°   Wind: 7mph
Humidity: 96%   Direction: 340°NNW
Pressure: 29.63"   Gusts: NA
Location:  61.09°N, 160.98°W
Report Text: PFKW 221256Z AUTO 34006KT 10SM CLR M06/M07 A2963 RMK AO2 SLP035 T10611067 FZRANO
Loading
Personal Weather Stations






























Interactive Weather Map
Tropical Storm Tracking
New forecast layout! Learn more

10-Day Weather Forecast

Advertisements
Track Severe Weather on mobile